createdAt,value
2019-02-05T00:01:28.694Z,-6.05
2019-02-05T00:03:57.810Z,-6.18
2019-02-05T00:06:26.608Z,-6.27
2019-02-05T00:08:55.452Z,-6.27
2019-02-05T00:11:24.084Z,-6.07
2019-02-05T00:13:52.760Z,-6.09
2019-02-05T00:16:21.470Z,-6.05
2019-02-05T00:18:51.676Z,-6.03
2019-02-05T00:21:20.972Z,-6.41
2019-02-05T00:23:49.623Z,-6.19
2019-02-05T00:26:18.266Z,-6.02
2019-02-05T00:28:46.923Z,-5.98
2019-02-05T00:31:15.641Z,-6.14
2019-02-05T00:33:44.316Z,-6.16
2019-02-05T00:36:13.311Z,-5.97
2019-02-05T00:38:41.967Z,-5.98
2019-02-05T00:41:10.855Z,-6.07
2019-02-05T00:43:39.531Z,-6.12
2019-02-05T00:46:08.175Z,-6.02
2019-02-05T00:48:36.817Z,-5.97
2019-02-05T00:51:06.027Z,-6.03
2019-02-05T00:53:34.723Z,-6.13
2019-02-05T00:56:03.370Z,-6.16
2019-02-05T00:58:32.114Z,-6.01
2019-02-05T01:01:00.757Z,-6.11
2019-02-05T01:03:29.732Z,-5.97
2019-02-05T01:05:58.459Z,-6.13
2019-02-05T01:08:27.102Z,-6.38
2019-02-05T01:10:55.738Z,-6.43
2019-02-05T01:13:24.386Z,-6.38
2019-02-05T01:15:53.330Z,-6.47
2019-02-05T01:18:21.970Z,-6.44
2019-02-05T01:20:50.658Z,-6.60
2019-02-05T01:23:19.294Z,-6.60
2019-02-05T01:25:49.080Z,-6.66
2019-02-05T01:28:17.728Z,-6.58
2019-02-05T01:30:46.444Z,-6.43
2019-02-05T01:33:15.163Z,-6.52
2019-02-05T01:35:44.604Z,-6.58
2019-02-05T01:38:13.235Z,-6.50
2019-02-05T01:40:41.883Z,-6.47
2019-02-05T01:43:10.536Z,-6.42
2019-02-05T01:45:39.171Z,-6.39
2019-02-05T01:48:07.859Z,-6.43
2019-02-05T01:50:36.515Z,-6.49
2019-02-05T01:53:05.615Z,-6.51
2019-02-05T01:55:34.331Z,-6.47
2019-02-05T01:58:02.991Z,-6.55
2019-02-05T02:00:32.975Z,-6.61
2019-02-05T02:03:01.791Z,-6.56
2019-02-05T02:05:30.461Z,-6.48
2019-02-05T02:07:59.477Z,-6.44
2019-02-05T02:10:28.945Z,-6.48
2019-02-05T02:12:57.851Z,-6.57
2019-02-05T02:15:26.490Z,-6.61
2019-02-05T02:17:55.146Z,-6.76
2019-02-05T02:20:23.984Z,-6.84
2019-02-05T02:22:53.109Z,-6.68
2019-02-05T02:25:21.829Z,-6.73
2019-02-05T02:27:50.810Z,-6.79
2019-02-05T02:30:30.021Z,-6.81
2019-02-05T02:32:58.838Z,-6.73
2019-02-05T02:35:27.564Z,-6.82
2019-02-05T02:37:56.474Z,-6.88
2019-02-05T02:40:25.125Z,-6.74
2019-02-05T02:42:53.828Z,-6.98
2019-02-05T02:45:22.479Z,-6.73
2019-02-05T02:47:52.186Z,-6.69
2019-02-05T02:50:20.926Z,-6.74
2019-02-05T02:52:51.651Z,-6.66
2019-02-05T02:55:20.378Z,-6.60
2019-02-05T02:57:49.094Z,-6.70
2019-02-05T03:00:18.366Z,-6.55
2019-02-05T03:02:47.091Z,-6.60
2019-02-05T03:05:16.515Z,-6.63
2019-02-05T03:07:45.535Z,-6.70
2019-02-05T03:10:15.566Z,-6.70
2019-02-05T03:12:44.486Z,-6.76
2019-02-05T03:15:13.236Z,-6.89
2019-02-05T03:17:41.891Z,-6.93
2019-02-05T03:20:10.784Z,-6.84
2019-02-05T03:22:39.511Z,-6.85
2019-02-05T03:25:08.666Z,-7.09
2019-02-05T03:27:37.386Z,-7.05
2019-02-05T03:30:06.736Z,-6.89
2019-02-05T03:32:35.593Z,-6.97
2019-02-05T03:35:06.261Z,-7.00
2019-02-05T03:37:35.076Z,-7.07
2019-02-05T03:40:04.652Z,-7.00
2019-02-05T03:42:33.861Z,-7.02
2019-02-05T03:45:02.579Z,-7.13
2019-02-05T03:47:31.612Z,-7.26
2019-02-05T03:50:00.358Z,-7.17
2019-02-05T03:52:35.597Z,-7.19
2019-02-05T03:55:26.119Z,-7.39
2019-02-05T03:57:58.671Z,-7.40
2019-02-05T04:00:34.410Z,-7.40
2019-02-05T04:03:17.468Z,-7.39
2019-02-05T04:06:05.667Z,-7.50
2019-02-05T04:08:45.560Z,-7.37
2019-02-05T04:11:48.827Z,-7.31
2019-02-05T04:14:35.735Z,-7.42
2019-02-05T04:17:26.535Z,-7.34
2019-02-05T04:20:20.653Z,-7.55
2019-02-05T04:23:05.815Z,-7.42
2019-02-05T04:25:40.734Z,-7.45
2019-02-05T04:28:37.510Z,-7.45
2019-02-05T04:31:40.966Z,-7.60
2019-02-05T04:34:29.861Z,-7.62
2019-02-05T04:37:33.283Z,-7.60
2019-02-05T04:40:17.495Z,-7.69
2019-02-05T04:43:20.900Z,-7.93
2019-02-05T04:46:02.293Z,-7.89
2019-02-05T04:48:38.333Z,-7.67
2019-02-05T04:51:13.486Z,-7.58
2019-02-05T04:53:49.315Z,-7.56
2019-02-05T04:56:23.138Z,-7.59
2019-02-05T04:59:14.080Z,-7.59
2019-02-05T05:02:17.459Z,-7.57
2019-02-05T05:04:52.259Z,-7.59
2019-02-05T05:07:46.540Z,-7.38
2019-02-05T05:10:15.184Z,-7.28
2019-02-05T05:12:43.890Z,-7.52
2019-02-05T05:15:12.532Z,-7.28
2019-02-05T05:17:41.244Z,-7.27
2019-02-05T05:20:11.106Z,-7.29
2019-02-05T05:22:40.402Z,-7.31
2019-02-05T05:25:10.394Z,-7.14
2019-02-05T05:27:39.130Z,-7.08
2019-02-05T05:30:10.125Z,-7.06
2019-02-05T05:32:38.776Z,-6.90
2019-02-05T05:35:10.187Z,-6.76
2019-02-05T05:37:38.835Z,-6.66
2019-02-05T05:40:08.954Z,-6.61
2019-02-05T05:42:37.613Z,-6.62
2019-02-05T05:45:07.084Z,-6.60
2019-02-05T05:47:35.938Z,-6.54
2019-02-05T05:50:05.263Z,-6.46
2019-02-05T05:52:33.933Z,-6.47
2019-02-05T05:55:02.704Z,-6.58
2019-02-05T05:57:31.548Z,-6.72
2019-02-05T06:00:00.503Z,-6.77
2019-02-05T06:02:29.295Z,-6.77
2019-02-05T06:04:59.076Z,-6.90
2019-02-05T06:07:27.713Z,-6.91
2019-02-05T06:09:56.359Z,-7.06
2019-02-05T06:12:25.011Z,-7.03
2019-02-05T06:14:53.655Z,-6.97
2019-02-05T06:17:22.422Z,-6.91
2019-02-05T06:19:51.439Z,-6.95
2019-02-05T06:22:20.074Z,-6.97
2019-02-05T06:24:48.803Z,-6.95
2019-02-05T06:27:17.460Z,-6.93
2019-02-05T06:29:46.581Z,-6.90
2019-02-05T06:32:15.296Z,-7.00
2019-02-05T06:34:44.046Z,-7.16
2019-02-05T06:37:12.821Z,-7.51
2019-02-05T06:39:41.470Z,-7.45
2019-02-05T06:42:10.142Z,-7.33
2019-02-05T06:44:38.914Z,-7.18
2019-02-05T06:47:07.948Z,-7.24
2019-02-05T06:49:36.726Z,-7.20
2019-02-05T06:52:05.362Z,-7.17
2019-02-05T06:54:34.399Z,-7.29
2019-02-05T06:57:03.143Z,-7.24
2019-02-05T06:59:31.789Z,-7.24
2019-02-05T07:02:00.423Z,-7.10
2019-02-05T07:04:29.714Z,-7.07
2019-02-05T07:06:58.381Z,-7.05
2019-02-05T07:09:27.029Z,-7.17
2019-02-05T07:11:55.739Z,-7.09
2019-02-05T07:14:24.389Z,-7.06
2019-02-05T07:16:53.051Z,-6.89
2019-02-05T07:19:21.701Z,-6.84
2019-02-05T07:21:50.727Z,-6.82
2019-02-05T07:24:19.725Z,-6.90
2019-02-05T07:26:48.431Z,-6.92
2019-02-05T07:29:17.067Z,-7.00
2019-02-05T07:31:45.719Z,-6.99
2019-02-05T07:34:14.435Z,-6.84
2019-02-05T07:36:43.075Z,-6.81
2019-02-05T07:39:11.995Z,-6.90
2019-02-05T07:41:40.886Z,-6.80
2019-02-05T07:44:09.533Z,-6.78
2019-02-05T07:46:39.017Z,-6.76
2019-02-05T07:49:07.655Z,-6.63
2019-02-05T07:51:37.381Z,-6.72
2019-02-05T07:54:06.194Z,-6.40
2019-02-05T07:56:35.296Z,-6.32
2019-02-05T07:59:10.258Z,-6.13
2019-02-05T08:01:35.576Z,-5.93
2019-02-05T08:04:04.535Z,-5.77
2019-02-05T08:06:33.265Z,-5.61
2019-02-05T08:09:01.914Z,-5.45
2019-02-05T08:11:32.509Z,-5.50
2019-02-05T08:14:01.443Z,-5.42
2019-02-05T08:16:30.168Z,-5.35
2019-02-05T08:18:58.804Z,-5.23
2019-02-05T08:21:27.471Z,-5.07
2019-02-05T08:23:56.115Z,-5.12
2019-02-05T08:26:25.203Z,-5.15
2019-02-05T08:28:53.861Z,-5.49
2019-02-05T08:31:22.507Z,-5.32
2019-02-05T08:33:51.528Z,-5.40
2019-02-05T08:36:20.249Z,-5.49
2019-02-05T08:38:48.975Z,-5.42
2019-02-05T08:41:17.615Z,-5.44
2019-02-05T08:43:46.283Z,-5.53
2019-02-05T08:46:14.932Z,-5.33
2019-02-05T08:48:43.658Z,-5.16
2019-02-05T08:51:12.763Z,-5.29
2019-02-05T08:53:41.568Z,-5.19
2019-02-05T08:56:10.282Z,-5.04
2019-02-05T08:58:39.291Z,-4.89
2019-02-05T09:01:08.012Z,-4.80
2019-02-05T09:03:36.928Z,-4.98
2019-02-05T09:06:05.654Z,-4.96
2019-02-05T09:08:34.734Z,-4.99
2019-02-05T09:11:03.740Z,-4.72
2019-02-05T09:13:32.395Z,-4.80
2019-02-05T09:16:01.039Z,-4.31
2019-02-05T09:18:29.748Z,-4.22
2019-02-05T09:20:58.415Z,-4.28
2019-02-05T09:23:27.141Z,-3.99
2019-02-05T09:25:56.327Z,-4.13
2019-02-05T09:28:25.075Z,-4.29
2019-02-05T09:30:54.041Z,-4.09
2019-02-05T09:33:23.279Z,-4.02
2019-02-05T09:35:52.424Z,-4.18
2019-02-05T09:38:21.061Z,-3.92
2019-02-05T09:40:49.699Z,-3.91
2019-02-05T09:43:18.732Z,-3.78
2019-02-05T09:46:06.611Z,-3.87
2019-02-05T09:48:35.260Z,-3.76
2019-02-05T09:51:03.971Z,-3.55
2019-02-05T09:53:32.616Z,-3.54
2019-02-05T09:56:01.735Z,-3.49
2019-02-05T09:58:30.451Z,-3.46
2019-02-05T10:00:59.739Z,-3.71
2019-02-05T10:03:28.596Z,-3.59
2019-02-05T10:05:57.240Z,-3.53
2019-02-05T10:08:25.882Z,-3.47
2019-02-05T10:10:54.532Z,-3.58
2019-02-05T10:13:23.455Z,-3.42
2019-02-05T10:15:52.228Z,-3.15
2019-02-05T10:18:20.956Z,-2.97
2019-02-05T10:20:49.676Z,-2.85
2019-02-05T10:23:18.666Z,-2.87
2019-02-05T10:25:47.324Z,-2.74
2019-02-05T10:28:15.969Z,-2.68
2019-02-05T10:30:45.427Z,-2.79
2019-02-05T10:33:14.092Z,-2.90
2019-02-05T10:35:42.903Z,-2.98
2019-02-05T10:38:11.631Z,-2.72
2019-02-05T10:40:40.291Z,-3.06
2019-02-05T10:43:09.100Z,-2.97
2019-02-05T10:45:37.812Z,-2.76
2019-02-05T10:48:07.799Z,-3.28
2019-02-05T10:50:36.529Z,-3.18
2019-02-05T10:53:05.238Z,-2.94
2019-02-05T10:55:35.418Z,-2.73
2019-02-05T10:58:04.482Z,-2.53
2019-02-05T11:00:33.150Z,-2.54
2019-02-05T11:03:02.368Z,-2.45
2019-02-05T11:05:31.448Z,-2.63
2019-02-05T11:08:00.257Z,-2.43
2019-02-05T11:10:29.074Z,-2.39
2019-02-05T11:12:57.856Z,-2.27
2019-02-05T11:15:27.648Z,-2.09
2019-02-05T11:17:56.464Z,-1.82
2019-02-05T11:20:26.239Z,-1.84
2019-02-05T11:22:54.966Z,-1.96
2019-02-05T11:25:23.617Z,-1.87
2019-02-05T11:27:52.358Z,-1.86
2019-02-05T11:30:25.195Z,-2.01
2019-02-05T11:32:53.939Z,-1.94
2019-02-05T11:35:22.598Z,-2.02
2019-02-05T11:37:51.629Z,-1.82
2019-02-05T11:40:25.027Z,-1.68
2019-02-05T11:42:53.829Z,-1.54
2019-02-05T11:45:22.931Z,-1.64
2019-02-05T11:47:51.889Z,-1.74
2019-02-05T11:50:20.705Z,-1.57
2019-02-05T11:52:49.811Z,-1.44
2019-02-05T11:55:19.443Z,-1.37
2019-02-05T11:57:48.155Z,-1.27
2019-02-05T12:00:32.285Z,-1.42
2019-02-05T12:02:53.490Z,-1.26
2019-02-05T12:05:22.151Z,-1.50
2019-02-05T12:07:50.809Z,-1.14
2019-02-05T12:10:19.756Z,-1.08
2019-02-05T12:12:48.430Z,-1.49
2019-02-05T12:15:17.240Z,-1.17
2019-02-05T12:17:45.966Z,-0.93
2019-02-05T12:20:14.717Z,-0.99
2019-02-05T12:22:43.512Z,-1.06
2019-02-05T12:25:13.273Z,-0.83
2019-02-05T12:27:42.346Z,-0.61
2019-02-05T12:30:13.580Z,-0.49
2019-02-05T12:32:42.668Z,-0.48
2019-02-05T12:35:13.489Z,-0.84
2019-02-05T12:37:42.232Z,-0.16
2019-02-05T12:40:11.517Z,-0.21
2019-02-05T12:42:40.442Z,-0.45
2019-02-05T12:45:10.617Z,-0.65
2019-02-05T12:47:39.352Z,-0.34
2019-02-05T12:50:10.459Z,-0.55
2019-02-05T12:52:39.407Z,-0.84
2019-02-05T12:55:13.381Z,-0.77
2019-02-05T12:57:38.735Z,-0.62
2019-02-05T13:00:11.415Z,-0.52
2019-02-05T13:02:40.091Z,-0.58
2019-02-05T13:05:08.833Z,-0.53
2019-02-05T13:07:37.493Z,-0.50
2019-02-05T13:10:07.087Z,-0.57
2019-02-05T13:12:36.291Z,-0.51
2019-02-05T13:15:05.504Z,-0.48
2019-02-05T13:17:34.178Z,-0.37
2019-02-05T13:20:03.098Z,-0.25
2019-02-05T13:22:31.908Z,-0.07
2019-02-05T13:25:00.558Z,-0.16
2019-02-05T13:27:29.589Z,-0.05
2019-02-05T13:29:58.281Z,-0.18
2019-02-05T13:32:27.008Z,-0.12
2019-02-05T13:34:56.794Z,-0.20
2019-02-05T13:37:25.520Z,-0.41
2019-02-05T13:39:54.179Z,-0.37
2019-02-05T13:42:23.203Z,-0.50
2019-02-05T13:44:52.568Z,-0.49
2019-02-05T13:47:21.219Z,-0.78
2019-02-05T13:49:49.906Z,-0.60
2019-02-05T13:52:19.547Z,-0.52
2019-02-05T13:54:48.281Z,-0.75
2019-02-05T13:57:18.032Z,-0.88
2019-02-05T13:59:46.733Z,-0.75
2019-02-05T14:02:15.379Z,-0.70
2019-02-05T14:04:44.037Z,-0.84
2019-02-05T14:07:12.691Z,-0.88
2019-02-05T14:09:41.317Z,-0.90
2019-02-05T14:12:10.049Z,-0.58
2019-02-05T14:14:39.151Z,-0.85
2019-02-05T14:17:07.873Z,-0.67
2019-02-05T14:19:36.540Z,-0.68
2019-02-05T14:22:05.288Z,-0.67
2019-02-05T14:24:34.720Z,-0.68
2019-02-05T14:27:03.510Z,-0.71
2019-02-05T14:29:32.258Z,-0.88
2019-02-05T14:32:01.006Z,-1.22
2019-02-05T14:34:29.680Z,-1.01
2019-02-05T14:36:58.389Z,-0.84
2019-02-05T14:39:27.115Z,-1.04
2019-02-05T14:41:55.799Z,-0.89
2019-02-05T14:44:24.455Z,-0.95
2019-02-05T14:46:53.396Z,-0.86
2019-02-05T14:49:22.067Z,-1.03
2019-02-05T14:51:50.880Z,-1.01
2019-02-05T14:54:19.543Z,-1.17
2019-02-05T14:56:48.218Z,-1.11
2019-02-05T14:59:16.856Z,-1.03
2019-02-05T15:01:45.991Z,-1.12
2019-02-05T15:04:14.727Z,-1.50
2019-02-05T15:06:43.375Z,-1.45
2019-02-05T15:09:12.096Z,-1.00
2019-02-05T15:11:40.833Z,-1.14
2019-02-05T15:14:09.504Z,-1.46
2019-02-05T15:16:38.692Z,-1.57
2019-02-05T15:19:07.353Z,-1.60
2019-02-05T15:21:36.395Z,-1.62
2019-02-05T15:24:05.048Z,-1.71
2019-02-05T15:26:34.004Z,-1.81
2019-02-05T15:29:02.675Z,-1.77
2019-02-05T15:31:31.324Z,-1.73
2019-02-05T15:34:03.751Z,-1.91
2019-02-05T15:36:37.531Z,-2.06
2019-02-05T15:39:15.722Z,-1.93
2019-02-05T15:41:44.385Z,-1.27
2019-02-05T15:44:13.771Z,-1.55
2019-02-05T15:46:42.439Z,-1.34
2019-02-05T15:49:11.095Z,-0.97
2019-02-05T15:51:39.929Z,-1.31
2019-02-05T15:54:09.060Z,-1.59
2019-02-05T15:56:37.787Z,-1.68
2019-02-05T15:59:06.931Z,-1.88
2019-02-05T16:01:35.606Z,-1.90
2019-02-05T16:04:04.541Z,-2.08
2019-02-05T16:06:33.223Z,-2.16
2019-02-05T16:09:01.893Z,-2.26
2019-02-05T16:11:32.167Z,-2.32
2019-02-05T16:14:00.823Z,-2.20
2019-02-05T16:16:29.578Z,-2.05
2019-02-05T16:18:58.245Z,-2.10
2019-02-05T16:21:26.937Z,-2.21
2019-02-05T16:23:58.197Z,-2.38
2019-02-05T16:26:25.964Z,-2.39
2019-02-05T16:28:54.612Z,-2.30
2019-02-05T16:31:23.676Z,-2.43
2019-02-05T16:33:52.772Z,-2.42
2019-02-05T16:36:21.496Z,-2.36
2019-02-05T16:38:50.206Z,-2.40
2019-02-05T16:41:18.844Z,-2.52
2019-02-05T16:43:47.586Z,-2.55
2019-02-05T16:46:16.621Z,-2.48
2019-02-05T16:48:45.268Z,-2.56
2019-02-05T16:51:13.995Z,-2.35
2019-02-05T16:53:42.667Z,-2.28
2019-02-05T16:56:11.339Z,-2.13
2019-02-05T16:58:40.080Z,-2.17
2019-02-05T17:01:08.752Z,-2.48
2019-02-05T17:03:37.671Z,-2.30
2019-02-05T17:06:06.332Z,-2.37
2019-02-05T17:08:37.103Z,-2.45
2019-02-05T17:11:05.816Z,-2.47
2019-02-05T17:13:34.465Z,-2.48
2019-02-05T17:16:03.222Z,-2.57
2019-02-05T17:18:32.235Z,-2.73
2019-02-05T17:21:00.972Z,-2.60
2019-02-05T17:23:29.734Z,-2.66
2019-02-05T17:25:59.365Z,-2.57
2019-02-05T17:28:29.022Z,-2.64
2019-02-05T17:30:57.692Z,-2.57
2019-02-05T17:33:26.712Z,-2.60
2019-02-05T17:35:55.392Z,-2.65
2019-02-05T17:38:25.611Z,-2.57
2019-02-05T17:40:54.849Z,-2.56
2019-02-05T17:43:23.574Z,-2.43
2019-02-05T17:45:52.294Z,-2.42
2019-02-05T17:48:21.586Z,-2.57
2019-02-05T17:50:50.227Z,-2.63
2019-02-05T17:53:18.907Z,-2.69
2019-02-05T17:55:47.639Z,-2.63
2019-02-05T17:58:16.885Z,-2.56
2019-02-05T18:00:54.771Z,-2.65
2019-02-05T18:03:24.238Z,-2.70
2019-02-05T18:05:52.877Z,-2.62
2019-02-05T18:08:21.619Z,-2.77
2019-02-05T18:10:50.271Z,-2.71
2019-02-05T18:13:18.979Z,-2.73
2019-02-05T18:15:47.633Z,-2.91
2019-02-05T18:18:16.642Z,-2.97
2019-02-05T18:20:45.291Z,-2.91
2019-02-05T18:23:14.026Z,-2.94
2019-02-05T18:25:42.674Z,-2.89
2019-02-05T18:28:11.390Z,-2.95
2019-02-05T18:30:40.439Z,-2.96
2019-02-05T18:33:09.171Z,-3.00
2019-02-05T18:35:38.166Z,-3.03
2019-02-05T18:38:07.753Z,-2.95
2019-02-05T18:40:36.448Z,-2.99
2019-02-05T18:43:05.198Z,-2.87
2019-02-05T18:45:33.855Z,-2.97
2019-02-05T18:48:02.506Z,-3.00
2019-02-05T18:50:31.216Z,-3.02
2019-02-05T18:52:59.883Z,-2.97
2019-02-05T18:55:28.897Z,-2.85
2019-02-05T18:58:08.465Z,-2.90
2019-02-05T19:00:29.326Z,-3.15
2019-02-05T19:02:58.428Z,-3.19
2019-02-05T19:05:27.648Z,-3.17
2019-02-05T19:07:56.759Z,-3.03
2019-02-05T19:10:26.009Z,-2.89
2019-02-05T19:12:54.715Z,-2.87
2019-02-05T19:15:24.319Z,-3.06
2019-02-05T19:17:52.979Z,-3.01
2019-02-05T19:20:22.995Z,-2.65
2019-02-05T19:22:51.739Z,-2.59
2019-02-05T19:25:43.715Z,-2.59
2019-02-05T19:28:18.466Z,-2.65
2019-02-05T19:30:47.419Z,-2.67
2019-02-05T19:33:26.662Z,-2.61
2019-02-05T19:35:46.744Z,-2.45
2019-02-05T19:38:15.465Z,-2.45
2019-02-05T19:40:44.146Z,-2.49
2019-02-05T19:43:13.966Z,-2.51
2019-02-05T19:46:00.874Z,-2.55
2019-02-05T19:48:40.949Z,-2.68
2019-02-05T19:51:09.566Z,-2.64
2019-02-05T19:53:38.214Z,-2.67
2019-02-05T19:56:07.477Z,-2.66
2019-02-05T19:58:36.796Z,-2.50
2019-02-05T20:01:05.522Z,-2.63
2019-02-05T20:03:38.973Z,-2.60
2019-02-05T20:06:05.159Z,-2.68
2019-02-05T20:08:33.842Z,-2.67
2019-02-05T20:11:02.579Z,-2.75
2019-02-05T20:13:39.926Z,-2.87
2019-02-05T20:16:01.832Z,-2.84
2019-02-05T20:18:30.552Z,-2.52
2019-02-05T20:20:59.281Z,-2.74
2019-02-05T20:23:28.051Z,-2.87
2019-02-05T20:25:56.707Z,-2.90
2019-02-05T20:28:25.471Z,-3.02
2019-02-05T20:30:54.583Z,-3.04
2019-02-05T20:33:23.484Z,-2.94
2019-02-05T20:35:52.125Z,-3.00
2019-02-05T20:38:20.809Z,-3.01
2019-02-05T20:40:49.443Z,-2.96
2019-02-05T20:43:19.037Z,-3.03
2019-02-05T20:45:48.136Z,-2.98
2019-02-05T20:48:17.214Z,-3.06
2019-02-05T20:50:45.959Z,-3.17
2019-02-05T20:53:14.616Z,-3.08
2019-02-05T20:55:43.613Z,-3.10
2019-02-05T20:58:12.609Z,-3.12
2019-02-05T21:00:41.260Z,-3.16
2019-02-05T21:03:09.970Z,-3.09
2019-02-05T21:05:38.986Z,-3.10
2019-02-05T21:08:07.740Z,-3.14
2019-02-05T21:10:36.415Z,-3.15
2019-02-05T21:13:05.231Z,-3.19
2019-02-05T21:15:33.900Z,-3.23
2019-02-05T21:18:02.611Z,-3.13
2019-02-05T21:20:33.975Z,-3.18
2019-02-05T21:23:02.208Z,-3.24
2019-02-05T21:25:32.492Z,-3.25
2019-02-05T21:28:01.443Z,-3.10
2019-02-05T21:30:30.144Z,-3.20
2019-02-05T21:32:59.895Z,-3.28
2019-02-05T21:35:29.883Z,-3.32
2019-02-05T21:37:58.915Z,-3.30
2019-02-05T21:40:27.566Z,-3.25
2019-02-05T21:42:56.371Z,-3.12
2019-02-05T21:45:25.581Z,-3.20
2019-02-05T21:47:54.355Z,-3.15
2019-02-05T21:50:23.178Z,-3.20
2019-02-05T21:52:51.918Z,-3.12
2019-02-05T21:55:21.238Z,-3.11
2019-02-05T21:57:50.244Z,-3.03
2019-02-05T22:00:20.111Z,-3.02
2019-02-05T22:02:49.104Z,-3.07
2019-02-05T22:05:17.792Z,-3.16
2019-02-05T22:07:46.484Z,-3.08
2019-02-05T22:10:15.254Z,-3.19
2019-02-05T22:12:44.199Z,-2.92
2019-02-05T22:15:13.130Z,-2.57
2019-02-05T22:17:42.108Z,-2.71
2019-02-05T22:20:12.324Z,-2.85
2019-02-05T22:22:41.148Z,-2.93
2019-02-05T22:25:12.135Z,-2.85
2019-02-05T22:27:40.922Z,-2.83
2019-02-05T22:30:13.559Z,-2.84
2019-02-05T22:32:42.571Z,-2.93
2019-02-05T22:35:13.413Z,-2.98
2019-02-05T22:37:42.537Z,-2.97
2019-02-05T22:40:11.287Z,-2.95
2019-02-05T22:42:39.927Z,-2.99
2019-02-05T22:45:09.439Z,-2.94
2019-02-05T22:47:38.460Z,-2.81
2019-02-05T22:50:09.351Z,-2.89
2019-02-05T22:52:38.051Z,-3.01
2019-02-05T22:55:07.243Z,-3.10
2019-02-05T22:57:35.905Z,-3.05
2019-02-05T23:00:08.235Z,-3.00
2019-02-05T23:02:39.109Z,-2.95
2019-02-05T23:05:25.066Z,-2.93
2019-02-05T23:07:54.780Z,-3.00
2019-02-05T23:11:02.854Z,-2.96
2019-02-05T23:13:22.420Z,-2.97
2019-02-05T23:15:52.158Z,-2.96
2019-02-05T23:18:21.023Z,-2.95
2019-02-05T23:20:49.783Z,-2.95
2019-02-05T23:23:18.440Z,-3.09
2019-02-05T23:25:47.094Z,-3.06
2019-02-05T23:28:15.752Z,-2.93
2019-02-05T23:30:44.585Z,-2.99
2019-02-05T23:33:13.488Z,-2.90
2019-02-05T23:35:42.130Z,-3.07
2019-02-05T23:38:10.773Z,-3.02
2019-02-05T23:40:39.423Z,-3.13
2019-02-05T23:43:08.075Z,-3.10
2019-02-05T23:45:37.107Z,-3.19
2019-02-05T23:48:06.121Z,-3.07
2019-02-05T23:50:35.749Z,-3.06
2019-02-05T23:53:04.551Z,-3.01
2019-02-05T23:55:33.535Z,-2.95
2019-02-05T23:58:02.179Z,-2.98
